sensor_id;sensor_type;location;lat;lon;timestamp;temperature;humidity
7388;DHT22;3735;50.136;11.062;2023-02-01T00:00:11;3.90;99.90
7388;DHT22;3735;50.136;11.062;2023-02-01T00:02:37;3.90;99.90
7388;DHT22;3735;50.136;11.062;2023-02-01T00:05:07;3.90;99.90
7388;DHT22;3735;50.136;11.062;2023-02-01T00:07:35;3.90;99.90
7388;DHT22;3735;50.136;11.062;2023-02-01T00:10:01;4.00;99.90
7388;DHT22;3735;50.136;11.062;2023-02-01T00:12:29;4.00;99.90
7388;DHT22;3735;50.136;11.062;2023-02-01T00:14:55;4.00;99.90
7388;DHT22;3735;50.136;11.062;2023-02-01T00:17:21;4.10;99.90
7388;DHT22;3735;50.136;11.062;2023-02-01T00:19:47;4.10;99.90
7388;DHT22;3735;50.136;11.062;2023-02-01T00:22:13;4.10;99.90
7388;DHT22;3735;50.136;11.062;2023-02-01T00:24:38;4.10;99.90
7388;DHT22;3735;50.136;11.062;2023-02-01T00:27:04;4.10;99.90
7388;DHT22;3735;50.136;11.062;2023-02-01T00:29:30;4.10;99.90
7388;DHT22;3735;50.136;11.062;2023-02-01T00:31:55;4.10;99.90
7388;DHT22;3735;50.136;11.062;2023-02-01T00:34:21;4.10;99.90
7388;DHT22;3735;50.136;11.062;2023-02-01T00:36:47;4.10;99.90
7388;DHT22;3735;50.136;11.062;2023-02-01T00:39:13;4.10;99.90
7388;DHT22;3735;50.136;11.062;2023-02-01T00:41:39;4.10;99.90
7388;DHT22;3735;50.136;11.062;2023-02-01T00:44:06;4.10;99.90
7388;DHT22;3735;50.136;11.062;2023-02-01T00:46:32;4.10;99.90
7388;DHT22;3735;50.136;11.062;2023-02-01T00:48:58;4.10;99.90
7388;DHT22;3735;50.136;11.062;2023-02-01T00:51:26;4.10;99.90
7388;DHT22;3735;50.136;11.062;2023-02-01T00:53:53;4.10;99.90
7388;DHT22;3735;50.136;11.062;2023-02-01T00:56:19;4.10;99.90
7388;DHT22;3735;50.136;11.062;2023-02-01T00:58:45;4.10;99.90
7388;DHT22;3735;50.136;11.062;2023-02-01T01:01:18;4.10;99.90
7388;DHT22;3735;50.136;11.062;2023-02-01T01:03:51;4.10;99.90
7388;DHT22;3735;50.136;11.062;2023-02-01T01:06:22;4.00;99.90
7388;DHT22;3735;50.136;11.062;2023-02-01T01:08:56;4.00;99.90
7388;DHT22;3735;50.136;11.062;2023-02-01T01:11:25;3.90;99.90
7388;DHT22;3735;50.136;11.062;2023-02-01T01:13:54;3.90;99.90
7388;DHT22;3735;50.136;11.062;2023-02-01T01:16:22;3.80;99.90
7388;DHT22;3735;50.136;11.062;2023-02-01T01:18:50;3.80;99.90
7388;DHT22;3735;50.136;11.062;2023-02-01T01:21:17;3.80;99.90
7388;DHT22;3735;50.136;11.062;2023-02-01T01:23:43;3.80;99.90
7388;DHT22;3735;50.136;11.062;2023-02-01T01:26:16;3.80;99.90
7388;DHT22;3735;50.136;11.062;2023-02-01T01:28:44;3.80;99.90
7388;DHT22;3735;50.136;11.062;2023-02-01T01:31:15;3.80;99.90
7388;DHT22;3735;50.136;11.062;2023-02-01T01:33:42;3.80;99.90
7388;DHT22;3735;50.136;11.062;2023-02-01T01:36:10;3.80;99.90
7388;DHT22;3735;50.136;11.062;2023-02-01T01:38:40;3.80;99.90
7388;DHT22;3735;50.136;11.062;2023-02-01T01:41:08;3.70;99.90
7388;DHT22;3735;50.136;11.062;2023-02-01T01:43:57;3.70;99.90
7388;DHT22;3735;50.136;11.062;2023-02-01T01:46:32;3.70;99.90
7388;DHT22;3735;50.136;11.062;2023-02-01T01:51:34;3.70;99.90
7388;DHT22;3735;50.136;11.062;2023-02-01T01:56:50;3.60;99.90
7388;DHT22;3735;50.136;11.062;2023-02-01T01:59:22;3.60;99.90
7388;DHT22;3735;50.136;11.062;2023-02-01T02:01:49;3.60;99.90
7388;DHT22;3735;50.136;11.062;2023-02-01T02:04:17;3.60;99.90
7388;DHT22;3735;50.136;11.062;2023-02-01T02:09:22;3.60;99.90
7388;DHT22;3735;50.136;11.062;2023-02-01T02:11:48;3.60;99.90
7388;DHT22;3735;50.136;11.062;2023-02-01T02:14:17;3.60;99.90
7388;DHT22;3735;50.136;11.062;2023-02-01T02:16:50;3.60;99.90
7388;DHT22;3735;50.136;11.062;2023-02-01T02:22:44;3.60;99.90
7388;DHT22;3735;50.136;11.062;2023-02-01T02:39:28;3.70;99.90
7388;DHT22;3735;50.136;11.062;2023-02-01T02:45:06;3.60;99.90
7388;DHT22;3735;50.136;11.062;2023-02-01T02:50:46;3.60;99.90
7388;DHT22;3735;50.136;11.062;2023-02-01T02:53:47;3.60;99.90
7388;DHT22;3735;50.136;11.062;2023-02-01T02:56:37;3.70;99.90
7388;DHT22;3735;50.136;11.062;2023-02-01T02:59:25;3.70;99.90
7388;DHT22;3735;50.136;11.062;2023-02-01T03:02:12;3.70;99.90
7388;DHT22;3735;50.136;11.062;2023-02-01T03:04:58;3.60;99.90
7388;DHT22;3735;50.136;11.062;2023-02-01T03:11:02;3.70;99.90
7388;DHT22;3735;50.136;11.062;2023-02-01T03:13:51;3.70;99.90
7388;DHT22;3735;50.136;11.062;2023-02-01T03:19:22;3.80;99.90
7388;DHT22;3735;50.136;11.062;2023-02-01T03:22:05;3.70;99.90
7388;DHT22;3735;50.136;11.062;2023-02-01T03:24:52;3.70;99.90
7388;DHT22;3735;50.136;11.062;2023-02-01T03:30:28;3.80;99.90
7388;DHT22;3735;50.136;11.062;2023-02-01T03:33:00;3.80;99.90
7388;DHT22;3735;50.136;11.062;2023-02-01T03:36:03;3.80;99.90
7388;DHT22;3735;50.136;11.062;2023-02-01T03:41:28;3.80;99.90
7388;DHT22;3735;50.136;11.062;2023-02-01T03:44:26;3.80;99.90
7388;DHT22;3735;50.136;11.062;2023-02-01T03:47:15;3.70;99.90
7388;DHT22;3735;50.136;11.062;2023-02-01T03:49:55;3.80;99.90
7388;DHT22;3735;50.136;11.062;2023-02-01T03:52:30;3.80;99.90
7388;DHT22;3735;50.136;11.062;2023-02-01T03:55:04;3.80;99.90
7388;DHT22;3735;50.136;11.062;2023-02-01T03:57:35;3.80;99.90
7388;DHT22;3735;50.136;11.062;2023-02-01T04:00:21;3.80;99.90
7388;DHT22;3735;50.136;11.062;2023-02-01T04:02:50;3.80;99.90
7388;DHT22;3735;50.136;11.062;2023-02-01T04:05:16;3.80;99.90
7388;DHT22;3735;50.136;11.062;2023-02-01T04:07:42;3.80;99.90
7388;DHT22;3735;50.136;11.062;2023-02-01T04:10:09;3.80;99.90
7388;DHT22;3735;50.136;11.062;2023-02-01T04:12:36;3.80;99.90
7388;DHT22;3735;50.136;11.062;2023-02-01T04:15:03;3.80;99.90
7388;DHT22;3735;50.136;11.062;2023-02-01T04:17:30;3.80;99.90
7388;DHT22;3735;50.136;11.062;2023-02-01T04:19:56;3.80;99.90
7388;DHT22;3735;50.136;11.062;2023-02-01T04:22:22;3.80;99.90
7388;DHT22;3735;50.136;11.062;2023-02-01T04:24:48;3.80;99.90
7388;DHT22;3735;50.136;11.062;2023-02-01T04:27:13;3.80;99.90
7388;DHT22;3735;50.136;11.062;2023-02-01T04:29:39;3.70;99.90
7388;DHT22;3735;50.136;11.062;2023-02-01T04:32:06;3.70;99.90
7388;DHT22;3735;50.136;11.062;2023-02-01T04:34:32;3.70;99.90
7388;DHT22;3735;50.136;11.062;2023-02-01T04:36:58;3.70;99.90
7388;DHT22;3735;50.136;11.062;2023-02-01T04:39:24;3.70;99.90
7388;DHT22;3735;50.136;11.062;2023-02-01T04:41:49;3.70;99.90
7388;DHT22;3735;50.136;11.062;2023-02-01T04:44:17;3.70;99.90
7388;DHT22;3735;50.136;11.062;2023-02-01T04:46:45;3.60;99.90
7388;DHT22;3735;50.136;11.062;2023-02-01T04:49:12;3.60;99.90
7388;DHT22;3735;50.136;11.062;2023-02-01T04:51:39;3.50;99.90
7388;DHT22;3735;50.136;11.062;2023-02-01T04:54:06;3.50;99.90
7388;DHT22;3735;50.136;11.062;2023-02-01T04:56:33;3.50;99.90
7388;DHT22;3735;50.136;11.062;2023-02-01T04:59:03;3.50;99.90
7388;DHT22;3735;50.136;11.062;2023-02-01T05:01:29;3.50;99.90
7388;DHT22;3735;50.136;11.062;2023-02-01T05:03:55;3.50;99.90
7388;DHT22;3735;50.136;11.062;2023-02-01T05:06:22;3.50;99.90
7388;DHT22;3735;50.136;11.062;2023-02-01T05:08:48;3.50;99.90
7388;DHT22;3735;50.136;11.062;2023-02-01T05:11:14;3.60;99.90
7388;DHT22;3735;50.136;11.062;2023-02-01T05:13:59;3.60;99.90
7388;DHT22;3735;50.136;11.062;2023-02-01T05:16:25;3.60;99.90
7388;DHT22;3735;50.136;11.062;2023-02-01T05:18:51;3.60;99.90
7388;DHT22;3735;50.136;11.062;2023-02-01T05:21:17;3.60;99.90
7388;DHT22;3735;50.136;11.062;2023-02-01T05:23:43;3.60;99.90
7388;DHT22;3735;50.136;11.062;2023-02-01T05:26:27;3.60;99.90
7388;DHT22;3735;50.136;11.062;2023-02-01T05:28:53;3.60;99.90
7388;DHT22;3735;50.136;11.062;2023-02-01T05:31:19;3.60;99.90
7388;DHT22;3735;50.136;11.062;2023-02-01T05:33:46;3.60;99.90
7388;DHT22;3735;50.136;11.062;2023-02-01T05:36:12;3.60;99.90
7388;DHT22;3735;50.136;11.062;2023-02-01T05:38:38;3.60;99.90
7388;DHT22;3735;50.136;11.062;2023-02-01T05:41:04;3.70;99.90
7388;DHT22;3735;50.136;11.062;2023-02-01T05:43:30;3.70;99.90
7388;DHT22;3735;50.136;11.062;2023-02-01T05:45:56;3.70;99.90
7388;DHT22;3735;50.136;11.062;2023-02-01T05:48:21;3.70;99.90
7388;DHT22;3735;50.136;11.062;2023-02-01T05:50:47;3.70;99.90
7388;DHT22;3735;50.136;11.062;2023-02-01T05:53:13;3.70;99.90
7388;DHT22;3735;50.136;11.062;2023-02-01T05:55:39;3.70;99.90
7388;DHT22;3735;50.136;11.062;2023-02-01T05:58:05;3.70;99.90
7388;DHT22;3735;50.136;11.062;2023-02-01T06:00:31;3.70;99.90
7388;DHT22;3735;50.136;11.062;2023-02-01T06:02:57;3.70;99.90
7388;DHT22;3735;50.136;11.062;2023-02-01T06:05:23;3.60;99.90
7388;DHT22;3735;50.136;11.062;2023-02-01T06:07:49;3.60;99.90
7388;DHT22;3735;50.136;11.062;2023-02-01T06:10:17;3.60;99.90
7388;DHT22;3735;50.136;11.062;2023-02-01T06:12:43;3.60;99.90
7388;DHT22;3735;50.136;11.062;2023-02-01T06:15:11;3.50;99.90
7388;DHT22;3735;50.136;11.062;2023-02-01T06:17:37;3.60;99.90
7388;DHT22;3735;50.136;11.062;2023-02-01T06:20:05;3.60;99.90
7388;DHT22;3735;50.136;11.062;2023-02-01T06:22:32;3.60;99.90
7388;DHT22;3735;50.136;11.062;2023-02-01T06:24:58;3.60;99.90
7388;DHT22;3735;50.136;11.062;2023-02-01T06:27:24;3.60;99.90
7388;DHT22;3735;50.136;11.062;2023-02-01T06:29:50;3.60;99.90
7388;DHT22;3735;50.136;11.062;2023-02-01T06:32:16;3.60;99.90
7388;DHT22;3735;50.136;11.062;2023-02-01T06:34:43;3.60;99.90
7388;DHT22;3735;50.136;11.062;2023-02-01T06:37:09;3.70;99.90
7388;DHT22;3735;50.136;11.062;2023-02-01T06:39:36;3.70;99.90
7388;DHT22;3735;50.136;11.062;2023-02-01T06:42:03;3.70;99.90
7388;DHT22;3735;50.136;11.062;2023-02-01T06:44:28;3.80;99.90
7388;DHT22;3735;50.136;11.062;2023-02-01T06:46:54;3.80;99.90
7388;DHT22;3735;50.136;11.062;2023-02-01T06:49:21;3.70;99.90
7388;DHT22;3735;50.136;11.062;2023-02-01T06:51:46;3.60;99.90
7388;DHT22;3735;50.136;11.062;2023-02-01T06:54:13;3.70;99.90
7388;DHT22;3735;50.136;11.062;2023-02-01T06:56:39;3.70;99.90
7388;DHT22;3735;50.136;11.062;2023-02-01T06:59:09;3.70;99.90
7388;DHT22;3735;50.136;11.062;2023-02-01T07:01:35;3.60;99.90
7388;DHT22;3735;50.136;11.062;2023-02-01T07:04:01;3.60;99.90
7388;DHT22;3735;50.136;11.062;2023-02-01T07:06:27;3.60;99.90
7388;DHT22;3735;50.136;11.062;2023-02-01T07:08:52;3.60;99.90
7388;DHT22;3735;50.136;11.062;2023-02-01T07:11:21;3.60;99.90
7388;DHT22;3735;50.136;11.062;2023-02-01T07:13:48;3.60;99.90
7388;DHT22;3735;50.136;11.062;2023-02-01T07:16:17;3.70;99.90
7388;DHT22;3735;50.136;11.062;2023-02-01T07:18:44;3.60;99.90
7388;DHT22;3735;50.136;11.062;2023-02-01T07:21:10;3.70;99.90
7388;DHT22;3735;50.136;11.062;2023-02-01T07:23:37;3.80;99.90
7388;DHT22;3735;50.136;11.062;2023-02-01T07:26:04;3.90;99.90
7388;DHT22;3735;50.136;11.062;2023-02-01T07:28:34;3.90;99.90
7388;DHT22;3735;50.136;11.062;2023-02-01T07:31:08;3.90;99.90
7388;DHT22;3735;50.136;11.062;2023-02-01T07:33:36;3.90;99.90
7388;DHT22;3735;50.136;11.062;2023-02-01T07:36:04;3.90;99.90
7388;DHT22;3735;50.136;11.062;2023-02-01T07:38:31;3.90;99.90
7388;DHT22;3735;50.136;11.062;2023-02-01T07:40:59;3.80;99.90
7388;DHT22;3735;50.136;11.062;2023-02-01T07:43:29;3.90;99.90
7388;DHT22;3735;50.136;11.062;2023-02-01T07:45:55;4.00;99.90
7388;DHT22;3735;50.136;11.062;2023-02-01T07:48:22;4.20;99.90
7388;DHT22;3735;50.136;11.062;2023-02-01T07:50:57;4.40;99.90
7388;DHT22;3735;50.136;11.062;2023-02-01T07:53:31;4.50;99.90
7388;DHT22;3735;50.136;11.062;2023-02-01T07:55:59;4.50;99.90
7388;DHT22;3735;50.136;11.062;2023-02-01T07:58:26;4.40;99.90
7388;DHT22;3735;50.136;11.062;2023-02-01T08:00:52;4.40;99.90
7388;DHT22;3735;50.136;11.062;2023-02-01T08:03:37;4.50;99.90
7388;DHT22;3735;50.136;11.062;2023-02-01T08:06:03;4.50;99.90
7388;DHT22;3735;50.136;11.062;2023-02-01T08:08:29;4.50;99.90
7388;DHT22;3735;50.136;11.062;2023-02-01T08:10:59;4.50;99.90
7388;DHT22;3735;50.136;11.062;2023-02-01T08:13:25;4.80;99.90
7388;DHT22;3735;50.136;11.062;2023-02-01T08:15:51;5.40;99.90
7388;DHT22;3735;50.136;11.062;2023-02-01T08:18:17;5.90;99.90
7388;DHT22;3735;50.136;11.062;2023-02-01T08:20:44;5.90;99.90
7388;DHT22;3735;50.136;11.062;2023-02-01T08:23:13;5.60;99.90
7388;DHT22;3735;50.136;11.062;2023-02-01T08:25:38;5.30;99.90
7388;DHT22;3735;50.136;11.062;2023-02-01T08:28:06;5.10;99.90
7388;DHT22;3735;50.136;11.062;2023-02-01T08:30:32;5.00;99.90
7388;DHT22;3735;50.136;11.062;2023-02-01T08:32:58;4.90;99.90
7388;DHT22;3735;50.136;11.062;2023-02-01T08:35:24;4.90;99.90
7388;DHT22;3735;50.136;11.062;2023-02-01T08:37:50;4.90;99.90
7388;DHT22;3735;50.136;11.062;2023-02-01T08:40:16;4.80;99.90
7388;DHT22;3735;50.136;11.062;2023-02-01T08:42:42;4.90;99.90
7388;DHT22;3735;50.136;11.062;2023-02-01T08:45:22;4.80;99.90
7388;DHT22;3735;50.136;11.062;2023-02-01T08:47:54;4.80;99.90
7388;DHT22;3735;50.136;11.062;2023-02-01T08:50:21;4.80;99.90
7388;DHT22;3735;50.136;11.062;2023-02-01T08:52:48;4.80;99.90
7388;DHT22;3735;50.136;11.062;2023-02-01T08:55:14;4.80;99.90
7388;DHT22;3735;50.136;11.062;2023-02-01T08:57:40;4.80;99.90
7388;DHT22;3735;50.136;11.062;2023-02-01T09:00:10;4.80;99.90
7388;DHT22;3735;50.136;11.062;2023-02-01T09:02:38;4.80;99.90
7388;DHT22;3735;50.136;11.062;2023-02-01T09:05:05;4.70;99.90
7388;DHT22;3735;50.136;11.062;2023-02-01T09:07:32;4.60;99.90
7388;DHT22;3735;50.136;11.062;2023-02-01T09:09:59;4.50;99.90
7388;DHT22;3735;50.136;11.062;2023-02-01T09:12:28;4.60;99.90
7388;DHT22;3735;50.136;11.062;2023-02-01T09:14:56;4.60;99.90
7388;DHT22;3735;50.136;11.062;2023-02-01T09:17:27;4.60;99.90
7388;DHT22;3735;50.136;11.062;2023-02-01T09:19:55;4.60;99.90
7388;DHT22;3735;50.136;11.062;2023-02-01T09:22:21;4.60;99.90
7388;DHT22;3735;50.136;11.062;2023-02-01T09:24:47;4.70;99.90
7388;DHT22;3735;50.136;11.062;2023-02-01T09:27:12;4.70;99.90
7388;DHT22;3735;50.136;11.062;2023-02-01T09:29:38;4.70;99.90
7388;DHT22;3735;50.136;11.062;2023-02-01T09:32:04;4.80;99.90
7388;DHT22;3735;50.136;11.062;2023-02-01T09:34:32;4.70;99.90
7388;DHT22;3735;50.136;11.062;2023-02-01T09:36:59;4.80;99.90
7388;DHT22;3735;50.136;11.062;2023-02-01T09:39:24;4.80;99.90
7388;DHT22;3735;50.136;11.062;2023-02-01T09:42:04;4.80;99.90
7388;DHT22;3735;50.136;11.062;2023-02-01T09:45:24;4.80;99.90
7388;DHT22;3735;50.136;11.062;2023-02-01T09:48:17;4.90;99.90
7388;DHT22;3735;50.136;11.062;2023-02-01T09:50:56;4.90;99.90
7388;DHT22;3735;50.136;11.062;2023-02-01T09:53:38;5.00;99.90
7388;DHT22;3735;50.136;11.062;2023-02-01T09:56:13;5.10;99.90
7388;DHT22;3735;50.136;11.062;2023-02-01T09:58:49;5.20;99.90
7388;DHT22;3735;50.136;11.062;2023-02-01T10:01:23;5.20;99.90
7388;DHT22;3735;50.136;11.062;2023-02-01T10:04:01;5.30;99.90
7388;DHT22;3735;50.136;11.062;2023-02-01T10:20:27;5.60;99.90
7388;DHT22;3735;50.136;11.062;2023-02-01T10:23:28;5.50;99.90
7388;DHT22;3735;50.136;11.062;2023-02-01T10:26:20;5.50;99.90
7388;DHT22;3735;50.136;11.062;2023-02-01T10:28:51;5.40;99.90
7388;DHT22;3735;50.136;11.062;2023-02-01T10:31:21;5.40;99.90
7388;DHT22;3735;50.136;11.062;2023-02-01T10:33:55;5.40;99.90
7388;DHT22;3735;50.136;11.062;2023-02-01T10:36:29;5.70;99.90
7388;DHT22;3735;50.136;11.062;2023-02-01T10:39:00;5.90;99.90
7388;DHT22;3735;50.136;11.062;2023-02-01T10:41:35;6.00;99.90
7388;DHT22;3735;50.136;11.062;2023-02-01T10:44:10;6.20;99.90
7388;DHT22;3735;50.136;11.062;2023-02-01T10:46:50;6.10;99.90
7388;DHT22;3735;50.136;11.062;2023-02-01T10:49:20;6.10;99.90
7388;DHT22;3735;50.136;11.062;2023-02-01T10:51:57;6.00;99.90
7388;DHT22;3735;50.136;11.062;2023-02-01T10:54:39;6.00;99.90
7388;DHT22;3735;50.136;11.062;2023-02-01T10:57:19;5.90;99.90
7388;DHT22;3735;50.136;11.062;2023-02-01T10:59:49;5.80;99.90
7388;DHT22;3735;50.136;11.062;2023-02-01T11:02:31;5.70;99.90
7388;DHT22;3735;50.136;11.062;2023-02-01T11:05:05;5.70;99.90
7388;DHT22;3735;50.136;11.062;2023-02-01T11:07:39;5.80;99.90
7388;DHT22;3735;50.136;11.062;2023-02-01T11:13:14;5.70;99.90
7388;DHT22;3735;50.136;11.062;2023-02-01T11:15:45;5.70;99.90
7388;DHT22;3735;50.136;11.062;2023-02-01T11:18:25;5.70;99.90
7388;DHT22;3735;50.136;11.062;2023-02-01T11:20:53;5.70;99.90
7388;DHT22;3735;50.136;11.062;2023-02-01T11:23:24;5.70;99.90
7388;DHT22;3735;50.136;11.062;2023-02-01T11:26:00;5.80;99.90
7388;DHT22;3735;50.136;11.062;2023-02-01T11:28:31;5.90;99.90
7388;DHT22;3735;50.136;11.062;2023-02-01T11:31:03;6.00;99.90
7388;DHT22;3735;50.136;11.062;2023-02-01T11:33:35;6.00;99.90
7388;DHT22;3735;50.136;11.062;2023-02-01T11:36:21;5.90;99.90
7388;DHT22;3735;50.136;11.062;2023-02-01T11:38:54;5.90;99.90
7388;DHT22;3735;50.136;11.062;2023-02-01T11:42:00;5.80;99.90
7388;DHT22;3735;50.136;11.062;2023-02-01T11:44:42;5.70;99.90
7388;DHT22;3735;50.136;11.062;2023-02-01T11:47:30;5.70;99.90
7388;DHT22;3735;50.136;11.062;2023-02-01T11:50:16;5.70;99.90
7388;DHT22;3735;50.136;11.062;2023-02-01T11:56:32;5.70;99.90
7388;DHT22;3735;50.136;11.062;2023-02-01T12:16:29;5.40;99.90
7388;DHT22;3735;50.136;11.062;2023-02-01T12:19:20;5.50;99.90
7388;DHT22;3735;50.136;11.062;2023-02-01T12:22:15;5.60;99.90
7388;DHT22;3735;50.136;11.062;2023-02-01T12:34:03;5.60;99.90
7388;DHT22;3735;50.136;11.062;2023-02-01T12:39:32;5.60;99.90
7388;DHT22;3735;50.136;11.062;2023-02-01T12:43:01;5.60;99.90
7388;DHT22;3735;50.136;11.062;2023-02-01T12:45:36;5.60;99.90
7388;DHT22;3735;50.136;11.062;2023-02-01T12:51:34;5.60;99.90
7388;DHT22;3735;50.136;11.062;2023-02-01T12:54:24;5.50;99.90
7388;DHT22;3735;50.136;11.062;2023-02-01T12:57:15;5.40;99.90
7388;DHT22;3735;50.136;11.062;2023-02-01T13:00:01;5.40;99.90
7388;DHT22;3735;50.136;11.062;2023-02-01T13:08:25;5.50;99.90
7388;DHT22;3735;50.136;11.062;2023-02-01T13:11:37;5.40;99.90
7388;DHT22;3735;50.136;11.062;2023-02-01T13:14:32;5.30;99.90
7388;DHT22;3735;50.136;11.062;2023-02-01T13:17:09;5.30;99.90
7388;DHT22;3735;50.136;11.062;2023-02-01T13:22:28;5.40;99.90
7388;DHT22;3735;50.136;11.062;2023-02-01T13:25:03;5.40;99.90
7388;DHT22;3735;50.136;11.062;2023-02-01T13:27:37;5.50;99.90
7388;DHT22;3735;50.136;11.062;2023-02-01T13:42:12;5.80;99.90
7388;DHT22;3735;50.136;11.062;2023-02-01T13:44:51;5.80;99.90
7388;DHT22;3735;50.136;11.062;2023-02-01T13:47:31;5.70;99.90
7388;DHT22;3735;50.136;11.062;2023-02-01T13:50:13;5.70;99.90
7388;DHT22;3735;50.136;11.062;2023-02-01T13:52:57;5.70;99.90
7388;DHT22;3735;50.136;11.062;2023-02-01T13:58:21;5.80;99.90
7388;DHT22;3735;50.136;11.062;2023-02-01T14:03:59;5.90;99.90
7388;DHT22;3735;50.136;11.062;2023-02-01T14:11:53;5.80;99.90
7388;DHT22;3735;50.136;11.062;2023-02-01T14:19:27;5.80;99.90
7388;DHT22;3735;50.136;11.062;2023-02-01T14:22:44;5.70;99.90
7388;DHT22;3735;50.136;11.062;2023-02-01T14:24:55;5.70;99.90
7388;DHT22;3735;50.136;11.062;2023-02-01T14:27:29;5.70;99.90
7388;DHT22;3735;50.136;11.062;2023-02-01T14:30:06;5.70;99.90
7388;DHT22;3735;50.136;11.062;2023-02-01T14:32:38;5.70;99.90
7388;DHT22;3735;50.136;11.062;2023-02-01T14:35:20;5.70;99.90
7388;DHT22;3735;50.136;11.062;2023-02-01T14:37:52;5.70;99.90
7388;DHT22;3735;50.136;11.062;2023-02-01T14:40:26;5.60;99.90
7388;DHT22;3735;50.136;11.062;2023-02-01T14:42:54;5.60;99.90
7388;DHT22;3735;50.136;11.062;2023-02-01T14:58:18;5.60;99.90
7388;DHT22;3735;50.136;11.062;2023-02-01T15:01:30;5.50;99.90
7388;DHT22;3735;50.136;11.062;2023-02-01T15:04:04;5.50;99.90
7388;DHT22;3735;50.136;11.062;2023-02-01T15:06:50;5.50;99.90
7388;DHT22;3735;50.136;11.062;2023-02-01T15:09:38;5.50;99.90
7388;DHT22;3735;50.136;11.062;2023-02-01T15:14:42;5.40;99.90
7388;DHT22;3735;50.136;11.062;2023-02-01T15:17:30;5.40;99.90
7388;DHT22;3735;50.136;11.062;2023-02-01T15:20:02;5.40;99.90
7388;DHT22;3735;50.136;11.062;2023-02-01T15:22:37;5.40;99.90
7388;DHT22;3735;50.136;11.062;2023-02-01T15:25:03;5.40;99.90
7388;DHT22;3735;50.136;11.062;2023-02-01T15:27:31;5.40;99.90
7388;DHT22;3735;50.136;11.062;2023-02-01T15:30:06;5.30;99.90
7388;DHT22;3735;50.136;11.062;2023-02-01T15:32:44;5.40;99.90
7388;DHT22;3735;50.136;11.062;2023-02-01T15:41:07;5.30;99.90
7388;DHT22;3735;50.136;11.062;2023-02-01T15:43:42;5.30;99.90
7388;DHT22;3735;50.136;11.062;2023-02-01T15:46:28;5.30;99.90
7388;DHT22;3735;50.136;11.062;2023-02-01T15:48:58;5.40;99.90
7388;DHT22;3735;50.136;11.062;2023-02-01T15:51:26;5.40;99.90
7388;DHT22;3735;50.136;11.062;2023-02-01T15:56:27;5.40;99.90
7388;DHT22;3735;50.136;11.062;2023-02-01T15:59:01;5.40;99.90
7388;DHT22;3735;50.136;11.062;2023-02-01T16:01:29;5.40;99.90
7388;DHT22;3735;50.136;11.062;2023-02-01T16:04:20;5.40;99.90
7388;DHT22;3735;50.136;11.062;2023-02-01T16:06:54;5.40;99.90
7388;DHT22;3735;50.136;11.062;2023-02-01T16:09:24;5.40;99.90
7388;DHT22;3735;50.136;11.062;2023-02-01T16:12:01;5.40;99.90
7388;DHT22;3735;50.136;11.062;2023-02-01T16:14:29;5.40;99.90
7388;DHT22;3735;50.136;11.062;2023-02-01T16:16:57;5.40;99.90
7388;DHT22;3735;50.136;11.062;2023-02-01T16:19:24;5.50;99.90
7388;DHT22;3735;50.136;11.062;2023-02-01T16:21:54;5.40;99.90
7388;DHT22;3735;50.136;11.062;2023-02-01T16:24:21;5.40;99.90
7388;DHT22;3735;50.136;11.062;2023-02-01T16:26:48;5.40;99.90
7388;DHT22;3735;50.136;11.062;2023-02-01T16:29:14;5.40;99.90
7388;DHT22;3735;50.136;11.062;2023-02-01T16:31:41;5.40;99.90
7388;DHT22;3735;50.136;11.062;2023-02-01T16:34:14;5.40;99.90
7388;DHT22;3735;50.136;11.062;2023-02-01T16:36:46;5.40;99.90
7388;DHT22;3735;50.136;11.062;2023-02-01T16:39:19;5.40;99.90
7388;DHT22;3735;50.136;11.062;2023-02-01T16:41:45;5.40;99.90
7388;DHT22;3735;50.136;11.062;2023-02-01T16:44:11;5.40;99.90
7388;DHT22;3735;50.136;11.062;2023-02-01T16:46:41;5.40;99.90
7388;DHT22;3735;50.136;11.062;2023-02-01T16:49:24;5.30;99.90
7388;DHT22;3735;50.136;11.062;2023-02-01T16:51:51;5.30;99.90
7388;DHT22;3735;50.136;11.062;2023-02-01T16:54:22;5.30;99.90
7388;DHT22;3735;50.136;11.062;2023-02-01T16:56:48;5.30;99.90
7388;DHT22;3735;50.136;11.062;2023-02-01T16:59:14;5.30;99.90
7388;DHT22;3735;50.136;11.062;2023-02-01T17:01:41;5.30;99.90
7388;DHT22;3735;50.136;11.062;2023-02-01T17:04:08;5.40;99.90
7388;DHT22;3735;50.136;11.062;2023-02-01T17:06:36;5.30;99.90
7388;DHT22;3735;50.136;11.062;2023-02-01T17:09:03;5.30;99.90
7388;DHT22;3735;50.136;11.062;2023-02-01T17:11:30;5.30;99.90
7388;DHT22;3735;50.136;11.062;2023-02-01T17:14:19;5.30;99.90
7388;DHT22;3735;50.136;11.062;2023-02-01T17:16:46;5.40;99.90
7388;DHT22;3735;50.136;11.062;2023-02-01T17:19:16;5.40;99.90
7388;DHT22;3735;50.136;11.062;2023-02-01T17:21:48;5.40;99.90
7388;DHT22;3735;50.136;11.062;2023-02-01T17:24:19;5.30;99.90
7388;DHT22;3735;50.136;11.062;2023-02-01T17:26:46;5.20;99.90
7388;DHT22;3735;50.136;11.062;2023-02-01T17:29:12;5.20;99.90
7388;DHT22;3735;50.136;11.062;2023-02-01T17:31:41;5.00;99.90
7388;DHT22;3735;50.136;11.062;2023-02-01T17:34:13;4.90;99.90
7388;DHT22;3735;50.136;11.062;2023-02-01T17:36:41;4.80;99.90
7388;DHT22;3735;50.136;11.062;2023-02-01T17:39:11;4.70;99.90
7388;DHT22;3735;50.136;11.062;2023-02-01T17:42:01;4.70;99.90
7388;DHT22;3735;50.136;11.062;2023-02-01T17:44:27;4.70;99.90
7388;DHT22;3735;50.136;11.062;2023-02-01T17:46:53;4.80;99.90
7388;DHT22;3735;50.136;11.062;2023-02-01T17:49:21;4.90;99.90
7388;DHT22;3735;50.136;11.062;2023-02-01T17:51:48;5.00;99.90
7388;DHT22;3735;50.136;11.062;2023-02-01T17:54:17;5.10;99.90
7388;DHT22;3735;50.136;11.062;2023-02-01T17:56:45;5.20;99.90
7388;DHT22;3735;50.136;11.062;2023-02-01T17:59:13;5.20;99.90
7388;DHT22;3735;50.136;11.062;2023-02-01T18:01:40;5.20;99.90
7388;DHT22;3735;50.136;11.062;2023-02-01T18:04:10;5.20;99.90
7388;DHT22;3735;50.136;11.062;2023-02-01T18:06:38;5.30;99.90
7388;DHT22;3735;50.136;11.062;2023-02-01T18:09:03;5.30;99.90
7388;DHT22;3735;50.136;11.062;2023-02-01T18:11:29;5.40;99.90
7388;DHT22;3735;50.136;11.062;2023-02-01T18:13:58;5.40;99.90
7388;DHT22;3735;50.136;11.062;2023-02-01T18:16:41;5.40;99.90
7388;DHT22;3735;50.136;11.062;2023-02-01T18:19:07;5.30;99.90
7388;DHT22;3735;50.136;11.062;2023-02-01T18:21:36;5.40;99.90
7388;DHT22;3735;50.136;11.062;2023-02-01T18:24:06;5.30;99.90
7388;DHT22;3735;50.136;11.062;2023-02-01T18:26:32;5.30;99.90
7388;DHT22;3735;50.136;11.062;2023-02-01T18:28:57;5.30;99.90
7388;DHT22;3735;50.136;11.062;2023-02-01T18:31:26;5.20;99.90
7388;DHT22;3735;50.136;11.062;2023-02-01T18:33:56;5.20;99.90
7388;DHT22;3735;50.136;11.062;2023-02-01T18:36:23;5.20;99.90
7388;DHT22;3735;50.136;11.062;2023-02-01T18:38:50;5.30;99.90
7388;DHT22;3735;50.136;11.062;2023-02-01T18:41:19;5.30;99.90
7388;DHT22;3735;50.136;11.062;2023-02-01T18:43:46;5.20;99.90
7388;DHT22;3735;50.136;11.062;2023-02-01T18:46:12;5.20;99.90
7388;DHT22;3735;50.136;11.062;2023-02-01T18:48:40;5.10;99.90
7388;DHT22;3735;50.136;11.062;2023-02-01T18:51:13;5.20;99.90
7388;DHT22;3735;50.136;11.062;2023-02-01T18:53:44;5.20;99.90
7388;DHT22;3735;50.136;11.062;2023-02-01T18:56:12;5.20;99.90
7388;DHT22;3735;50.136;11.062;2023-02-01T18:58:39;5.20;99.90
7388;DHT22;3735;50.136;11.062;2023-02-01T19:01:07;5.20;99.90
7388;DHT22;3735;50.136;11.062;2023-02-01T19:03:37;5.10;99.90
7388;DHT22;3735;50.136;11.062;2023-02-01T19:06:03;5.00;99.90
7388;DHT22;3735;50.136;11.062;2023-02-01T19:08:28;5.00;99.90